createdAt,value
2022-11-25T00:01:36.101Z,14.80
2022-11-25T00:04:05.490Z,13.93
2022-11-25T00:06:36.635Z,19.10
2022-11-25T00:09:06.801Z,13.90
2022-11-25T00:11:37.003Z,16.35
2022-11-25T00:14:08.372Z,18.02
2022-11-25T00:16:43.765Z,14.80
2022-11-25T00:19:17.725Z,11.68
2022-11-25T00:21:49.252Z,17.65
2022-11-25T00:24:19.075Z,13.63
2022-11-25T00:26:49.335Z,12.95
2022-11-25T00:29:18.080Z,12.48
2022-11-25T00:31:48.245Z,13.18
2022-11-25T00:34:16.885Z,14.88
2022-11-25T00:36:47.345Z,18.35
2022-11-25T00:39:19.903Z,11.32
2022-11-25T00:42:07.426Z,15.23
2022-11-25T00:44:38.924Z,22.50
2022-11-25T00:47:11.595Z,14.13
2022-11-25T00:49:40.873Z,13.75
2022-11-25T00:52:11.386Z,10.05
2022-11-25T00:54:42.081Z,11.57
2022-11-25T00:57:11.893Z,17.70
2022-11-25T00:59:41.466Z,11.52
2022-11-25T01:02:11.285Z,10.23
2022-11-25T01:04:39.835Z,15.82
2022-11-25T01:07:10.801Z,13.52
2022-11-25T01:09:39.226Z,17.00
2022-11-25T01:12:08.583Z,10.45
2022-11-25T01:14:38.421Z,11.45
2022-11-25T01:17:07.628Z,19.55
2022-11-25T01:19:40.256Z,15.88
2022-11-25T01:22:10.481Z,13.75
2022-11-25T01:24:39.077Z,12.02
2022-11-25T01:27:07.941Z,16.05
2022-11-25T01:29:41.425Z,11.70
2022-11-25T01:32:09.733Z,15.93
2022-11-25T01:34:38.404Z,16.77
2022-11-25T01:37:06.757Z,17.67
2022-11-25T01:39:36.426Z,16.10
2022-11-25T01:42:05.861Z,19.00
2022-11-25T01:44:37.376Z,16.63
2022-11-25T01:47:14.818Z,10.05
2022-11-25T01:49:49.055Z,14.73
2022-11-25T01:52:23.000Z,16.13
2022-11-25T01:54:57.966Z,11.73
2022-11-25T01:57:31.344Z,21.10
2022-11-25T02:00:04.082Z,15.82
2022-11-25T02:02:32.800Z,11.75
2022-11-25T02:05:02.392Z,16.98
2022-11-25T02:07:38.086Z,12.30
2022-11-25T02:10:13.852Z,13.32
2022-11-25T02:12:44.418Z,15.38
2022-11-25T02:15:15.057Z,21.67
2022-11-25T02:17:44.032Z,14.05
2022-11-25T02:20:16.195Z,13.52
2022-11-25T02:22:54.990Z,11.45
2022-11-25T02:25:26.948Z,17.52
2022-11-25T02:28:02.649Z,15.93
2022-11-25T02:30:31.503Z,12.30
2022-11-25T02:33:00.719Z,18.67
2022-11-25T02:35:37.091Z,10.73
2022-11-25T02:38:10.558Z,11.43
2022-11-25T02:40:53.654Z,12.73
2022-11-25T02:43:22.440Z,13.70
2022-11-25T02:45:56.572Z,14.68
2022-11-25T02:48:45.859Z,16.73
2022-11-25T02:51:16.370Z,15.68
2022-11-25T02:53:46.212Z,16.50
2022-11-25T02:56:16.762Z,12.77
2022-11-25T02:58:45.149Z,10.10
2022-11-25T03:01:13.477Z,10.20
2022-11-25T03:03:41.824Z,13.15
2022-11-25T03:06:12.986Z,12.35
2022-11-25T03:08:42.541Z,16.67
2022-11-25T03:11:12.528Z,16.27
2022-11-25T03:13:42.232Z,20.65
2022-11-25T03:16:10.948Z,13.13
2022-11-25T03:18:39.504Z,11.40
2022-11-25T03:21:08.290Z,15.10
2022-11-25T03:23:36.524Z,17.38
2022-11-25T03:26:07.899Z,10.13
2022-11-25T03:28:38.760Z,12.55
2022-11-25T03:31:13.387Z,17.40
2022-11-25T03:33:41.747Z,8.27
2022-11-25T03:36:09.972Z,12.02
2022-11-25T03:38:38.515Z,11.32
2022-11-25T03:41:07.156Z,17.77
2022-11-25T03:43:35.698Z,13.32
2022-11-25T03:46:04.276Z,12.13
2022-11-25T03:48:33.998Z,15.93
2022-11-25T03:51:02.996Z,10.40
2022-11-25T03:53:31.385Z,14.40
2022-11-25T03:55:59.546Z,11.63
2022-11-25T03:58:27.701Z,9.35
2022-11-25T04:01:00.560Z,15.68
2022-11-25T04:03:29.581Z,17.80
2022-11-25T04:06:00.832Z,15.23
2022-11-25T04:08:30.175Z,17.17
2022-11-25T04:10:58.929Z,7.97
2022-11-25T04:13:26.466Z,11.43
2022-11-25T04:15:55.132Z,14.65
2022-11-25T04:18:23.372Z,17.45
2022-11-25T04:20:52.326Z,12.93
2022-11-25T04:23:22.704Z,8.07
2022-11-25T04:25:51.678Z,8.07
2022-11-25T04:28:20.134Z,16.50
2022-11-25T04:30:48.511Z,15.00
2022-11-25T04:33:16.920Z,10.43
2022-11-25T04:35:45.185Z,13.63
2022-11-25T04:38:13.879Z,13.32
2022-11-25T04:40:45.321Z,11.93
2022-11-25T04:43:13.584Z,11.85
2022-11-25T04:46:12.429Z,8.80
2022-11-25T04:48:31.252Z,12.40
2022-11-25T04:50:59.696Z,12.77
2022-11-25T04:53:28.673Z,8.75
2022-11-25T04:55:58.263Z,8.02
2022-11-25T04:58:44.872Z,12.82
2022-11-25T05:01:14.565Z,12.40
2022-11-25T05:03:48.739Z,11.95
2022-11-25T05:06:19.561Z,12.07
2022-11-25T05:08:50.193Z,10.10
2022-11-25T05:11:22.092Z,10.27
2022-11-25T05:13:50.708Z,8.88
2022-11-25T05:16:19.917Z,15.20
2022-11-25T05:18:50.448Z,12.80
2022-11-25T05:21:18.754Z,12.35
2022-11-25T05:23:49.580Z,8.60
2022-11-25T05:26:21.487Z,14.20
2022-11-25T05:28:49.753Z,11.30
2022-11-25T05:31:18.071Z,17.77
2022-11-25T05:33:46.286Z,10.60
2022-11-25T05:36:15.950Z,9.93
2022-11-25T05:38:44.809Z,15.43
2022-11-25T05:41:15.418Z,11.90
2022-11-25T05:43:47.110Z,15.43
2022-11-25T05:46:16.309Z,11.43
2022-11-25T05:48:47.312Z,14.77
2022-11-25T05:51:16.012Z,16.92
2022-11-25T05:53:44.323Z,14.30
2022-11-25T05:56:13.089Z,8.50
2022-11-25T05:58:41.375Z,12.00
2022-11-25T06:01:12.666Z,10.75
2022-11-25T06:03:41.705Z,11.55
2022-11-25T06:06:11.700Z,12.43
2022-11-25T06:08:41.725Z,17.45
2022-11-25T06:11:13.019Z,18.52
2022-11-25T06:13:44.805Z,8.85
2022-11-25T06:16:18.318Z,12.02
2022-11-25T06:18:47.107Z,14.23
2022-11-25T06:21:16.132Z,14.57
2022-11-25T06:23:46.210Z,11.73
2022-11-25T06:26:16.359Z,12.93
2022-11-25T06:28:45.089Z,11.35
2022-11-25T06:31:18.709Z,14.48
2022-11-25T06:33:49.527Z,17.95
2022-11-25T06:36:19.945Z,12.85
2022-11-25T06:38:49.729Z,14.60
2022-11-25T06:41:18.642Z,13.95
2022-11-25T06:43:46.996Z,11.90
2022-11-25T06:46:24.872Z,10.82
2022-11-25T06:48:55.319Z,13.15
2022-11-25T06:51:24.587Z,12.10
2022-11-25T06:53:53.614Z,16.92
2022-11-25T06:56:23.888Z,19.45
2022-11-25T06:58:55.343Z,11.05
2022-11-25T07:01:27.169Z,15.18
2022-11-25T07:03:57.234Z,13.07
2022-11-25T07:06:28.103Z,11.40
2022-11-25T07:08:57.066Z,12.00
2022-11-25T07:11:28.119Z,14.70
2022-11-25T07:13:59.641Z,16.63
2022-11-25T07:16:30.040Z,13.45
2022-11-25T07:19:00.279Z,11.65
2022-11-25T07:21:32.203Z,9.05
2022-11-25T07:24:02.181Z,16.80
2022-11-25T07:26:32.277Z,6.28
2022-11-25T07:29:03.210Z,15.75
2022-11-25T07:31:34.736Z,6.65
2022-11-25T07:34:06.524Z,12.20
2022-11-25T07:36:36.211Z,11.50
2022-11-25T07:39:07.879Z,15.05
2022-11-25T07:41:38.374Z,13.32
2022-11-25T07:44:08.966Z,12.32
2022-11-25T07:46:40.836Z,13.57
2022-11-25T07:49:12.838Z,10.80
2022-11-25T07:51:43.053Z,9.93
2022-11-25T07:54:14.054Z,9.77
2022-11-25T07:56:44.665Z,12.73
2022-11-25T07:59:15.524Z,10.15
2022-11-25T08:01:46.314Z,9.15
2022-11-25T08:04:20.151Z,6.47
2022-11-25T08:06:53.009Z,6.82
2022-11-25T08:09:24.511Z,12.68
2022-11-25T08:11:54.526Z,13.18
2022-11-25T08:14:22.936Z,11.43
2022-11-25T08:16:54.165Z,7.95
2022-11-25T08:19:28.411Z,13.55
2022-11-25T08:22:00.034Z,10.52
2022-11-25T08:24:29.237Z,12.27
2022-11-25T08:26:58.755Z,6.13
2022-11-25T08:29:28.591Z,11.13
2022-11-25T08:31:58.470Z,6.10
2022-11-25T08:34:27.545Z,7.07
2022-11-25T08:36:56.299Z,7.93
2022-11-25T08:42:14.281Z,12.90
2022-11-25T08:44:42.543Z,6.57
2022-11-25T08:47:12.282Z,13.57
2022-11-25T08:49:42.003Z,10.25
2022-11-25T08:52:12.260Z,11.50
2022-11-25T08:54:40.528Z,8.57
2022-11-25T08:57:08.905Z,10.65
2022-11-25T08:59:40.501Z,7.03
2022-11-25T09:02:15.961Z,10.38
2022-11-25T09:04:46.011Z,7.80
2022-11-25T09:07:14.379Z,10.35
2022-11-25T09:09:42.818Z,9.45
2022-11-25T09:12:13.133Z,9.15
2022-11-25T09:14:41.903Z,6.68
2022-11-25T09:17:12.543Z,6.13
2022-11-25T09:19:41.279Z,6.78
2022-11-25T09:22:09.829Z,8.05
2022-11-25T09:24:38.127Z,9.70
2022-11-25T09:27:09.344Z,8.00
2022-11-25T09:29:40.796Z,8.82
2022-11-25T09:32:09.404Z,4.78
2022-11-25T09:34:39.342Z,7.40
2022-11-25T09:37:13.027Z,6.65
2022-11-25T09:39:41.354Z,13.82
2022-11-25T09:42:44.833Z,9.50
2022-11-25T09:45:38.786Z,18.10
2022-11-25T09:48:36.249Z,7.13
2022-11-25T09:51:15.780Z,8.13
2022-11-25T09:53:48.169Z,10.45
2022-11-25T09:56:27.069Z,5.80
2022-11-25T09:59:00.697Z,8.70
2022-11-25T10:01:31.928Z,7.90
2022-11-25T10:04:05.878Z,8.30
2022-11-25T10:06:44.887Z,11.90
2022-11-25T10:09:15.531Z,13.32
2022-11-25T10:11:51.996Z,8.75
2022-11-25T10:14:29.258Z,13.90
2022-11-25T10:17:07.945Z,13.80
2022-11-25T10:19:45.183Z,5.32
2022-11-25T10:22:24.636Z,7.90
2022-11-25T10:24:57.672Z,7.90
2022-11-25T10:27:32.529Z,11.13
2022-11-25T10:30:08.409Z,16.02
2022-11-25T10:32:42.965Z,9.63
2022-11-25T10:35:21.385Z,12.48
2022-11-25T10:37:55.447Z,10.82
2022-11-25T10:40:23.884Z,10.82
2022-11-25T10:42:55.351Z,6.85
2022-11-25T10:45:38.536Z,12.55
2022-11-25T10:48:29.076Z,11.75
2022-11-25T10:51:14.150Z,11.85
2022-11-25T10:54:03.949Z,8.90
2022-11-25T10:56:32.179Z,15.90
2022-11-25T10:59:13.550Z,10.25
2022-11-25T11:01:42.339Z,14.43
2022-11-25T11:04:18.401Z,9.75
2022-11-25T11:06:51.592Z,11.07
2022-11-25T11:09:34.332Z,9.32
2022-11-25T11:12:15.631Z,11.77
2022-11-25T11:14:44.624Z,12.50
2022-11-25T11:17:35.863Z,8.73
2022-11-25T11:20:17.173Z,13.23
2022-11-25T11:22:57.001Z,12.55
2022-11-25T11:25:43.711Z,10.18
2022-11-25T11:28:28.129Z,10.35
2022-11-25T11:30:59.861Z,12.15
2022-11-25T11:33:36.796Z,8.23
2022-11-25T11:36:22.287Z,9.65
2022-11-25T11:38:55.769Z,6.45
2022-11-25T11:41:40.900Z,15.60
2022-11-25T11:44:23.365Z,9.02
2022-11-25T11:47:04.603Z,17.50
2022-11-25T11:49:57.865Z,14.23
2022-11-25T11:52:34.105Z,10.50
2022-11-25T11:55:04.427Z,11.15
2022-11-25T11:57:44.657Z,11.35
2022-11-25T12:00:27.212Z,8.93
2022-11-25T12:03:00.984Z,13.73
2022-11-25T12:05:34.496Z,11.40
2022-11-25T12:08:10.102Z,12.02
2022-11-25T12:10:44.372Z,12.25
2022-11-25T12:13:21.929Z,12.98
2022-11-25T12:15:55.909Z,11.82
2022-11-25T12:18:42.145Z,12.43
2022-11-25T12:21:18.277Z,16.13
2022-11-25T12:23:55.863Z,15.98
2022-11-25T12:26:30.455Z,18.88
2022-11-25T12:29:06.744Z,13.48
2022-11-25T12:31:40.866Z,13.18
2022-11-25T12:34:13.610Z,20.33
2022-11-25T12:36:45.956Z,13.70
2022-11-25T12:39:25.413Z,10.23
2022-11-25T12:42:00.578Z,12.95
2022-11-25T12:44:36.008Z,14.32
2022-11-25T12:47:11.517Z,23.30
2022-11-25T12:49:44.812Z,18.17
2022-11-25T12:52:32.301Z,18.65
2022-11-25T12:55:11.048Z,13.88
2022-11-25T12:58:20.574Z,16.90
2022-11-25T13:01:30.715Z,12.57
2022-11-25T13:04:34.969Z,16.00
2022-11-25T13:07:25.721Z,12.63
2022-11-25T13:10:23.018Z,11.70
2022-11-25T13:13:21.913Z,15.95
2022-11-25T13:15:53.334Z,22.63
2022-11-25T13:18:26.447Z,15.27
2022-11-25T13:21:08.205Z,16.13
2022-11-25T13:23:52.121Z,14.38
2022-11-25T13:26:53.271Z,14.50
2022-11-25T13:30:04.607Z,14.55
2022-11-25T13:32:46.079Z,22.63
2022-11-25T13:35:36.352Z,16.05
2022-11-25T13:38:58.037Z,18.70
2022-11-25T13:41:45.093Z,15.70
2022-11-25T13:44:25.318Z,18.25
2022-11-25T13:46:54.643Z,20.20
2022-11-25T13:49:51.349Z,18.58
2022-11-25T13:52:41.735Z,14.63
2022-11-25T13:55:36.463Z,15.73
2022-11-25T13:58:19.089Z,11.52
2022-11-25T14:01:23.634Z,12.82
2022-11-25T14:04:00.176Z,13.27
2022-11-25T14:06:53.379Z,15.55
2022-11-25T14:09:39.251Z,16.15
2022-11-25T14:12:47.850Z,17.65
2022-11-25T14:15:44.971Z,15.43
2022-11-25T14:19:12.438Z,15.98
2022-11-25T14:21:45.398Z,14.80
2022-11-25T14:24:28.447Z,18.88
2022-11-25T14:26:59.407Z,16.65
2022-11-25T14:29:39.627Z,18.48
2022-11-25T14:32:14.374Z,17.77
2022-11-25T14:34:46.679Z,16.77
2022-11-25T14:37:18.692Z,25.50
2022-11-25T14:39:53.974Z,20.23
2022-11-25T14:42:24.886Z,18.38
2022-11-25T14:44:58.315Z,13.35
2022-11-25T14:47:30.606Z,20.00
2022-11-25T14:50:33.193Z,19.63
2022-11-25T14:52:56.467Z,14.90
2022-11-25T14:55:31.604Z,20.58
2022-11-25T14:57:59.931Z,17.98
2022-11-25T15:00:30.621Z,19.02
2022-11-25T15:03:02.492Z,18.98
2022-11-25T15:05:34.167Z,15.75
2022-11-25T15:08:11.308Z,18.17
2022-11-25T15:10:44.636Z,20.95
2022-11-25T15:13:24.994Z,25.00
2022-11-25T15:15:55.886Z,17.58
2022-11-25T15:18:26.820Z,20.50
2022-11-25T15:20:59.174Z,22.95
2022-11-25T15:23:34.805Z,21.10
2022-11-25T15:26:06.058Z,31.20
2022-11-25T15:28:38.575Z,15.45
2022-11-25T15:31:13.295Z,23.13
2022-11-25T15:33:42.601Z,20.15
2022-11-25T15:36:12.371Z,21.27
2022-11-25T15:38:43.413Z,20.33
2022-11-25T15:41:21.508Z,18.15
2022-11-25T15:43:52.569Z,22.95
2022-11-25T15:46:24.906Z,19.10
2022-11-25T15:48:58.687Z,22.35
2022-11-25T15:51:38.855Z,26.98
2022-11-25T15:54:18.396Z,20.92
2022-11-25T15:56:50.023Z,20.85
2022-11-25T15:59:40.891Z,28.15
2022-11-25T16:02:33.955Z,27.60
2022-11-25T16:05:31.772Z,26.48
2022-11-25T16:08:25.622Z,25.98
2022-11-25T16:10:57.155Z,19.83
2022-11-25T16:13:37.137Z,24.83
2022-11-25T16:16:23.927Z,25.27
2022-11-25T16:19:07.685Z,26.25
2022-11-25T16:21:51.057Z,22.55
2022-11-25T16:24:42.702Z,23.92
2022-11-25T16:27:21.926Z,24.15
2022-11-25T16:29:55.509Z,21.00
2022-11-25T16:32:25.890Z,22.10
2022-11-25T16:34:57.484Z,22.23
2022-11-25T16:37:26.392Z,21.45
2022-11-25T16:39:54.643Z,20.65
2022-11-25T16:42:23.635Z,22.83
2022-11-25T16:44:53.348Z,20.40
2022-11-25T16:47:22.900Z,21.42
2022-11-25T16:49:51.882Z,22.50
2022-11-25T16:52:25.175Z,26.08
2022-11-25T16:54:54.349Z,27.95
2022-11-25T16:57:23.108Z,22.85
2022-11-25T16:59:58.684Z,26.23
2022-11-25T17:02:27.762Z,27.75
2022-11-25T17:05:00.013Z,24.58
2022-11-25T17:07:33.203Z,26.65
2022-11-25T17:10:02.794Z,28.92
2022-11-25T17:12:36.055Z,31.50
2022-11-25T17:15:09.444Z,20.48
2022-11-25T17:17:41.314Z,20.02
2022-11-25T17:20:15.548Z,27.20
2022-11-25T17:22:45.435Z,29.25
2022-11-25T17:25:14.107Z,25.98
2022-11-25T17:27:43.582Z,25.98
2022-11-25T17:30:17.862Z,22.00
2022-11-25T17:32:46.833Z,30.67
2022-11-25T17:35:20.131Z,30.45
2022-11-25T17:37:50.307Z,26.15
2022-11-25T17:40:18.720Z,27.33
2022-11-25T17:42:49.943Z,28.60
2022-11-25T17:45:21.818Z,37.08
2022-11-25T17:47:50.456Z,36.05
2022-11-25T17:50:21.152Z,27.50
2022-11-25T17:52:51.369Z,35.80
2022-11-25T17:55:22.936Z,39.75
2022-11-25T17:57:52.977Z,36.53
2022-11-25T18:00:24.061Z,33.45
2022-11-25T18:02:53.373Z,36.28
2022-11-25T18:05:26.804Z,38.10
2022-11-25T18:07:57.434Z,30.23
2022-11-25T18:10:28.873Z,40.95
2022-11-25T18:12:57.983Z,33.78
2022-11-25T18:15:29.568Z,38.15
2022-11-25T18:18:02.778Z,33.08
2022-11-25T18:20:33.045Z,46.97
2022-11-25T18:23:03.888Z,39.35
2022-11-25T18:25:34.930Z,48.33
2022-11-25T18:28:05.986Z,38.65
2022-11-25T18:30:39.208Z,49.53
2022-11-25T18:33:13.443Z,46.88
2022-11-25T18:35:43.754Z,47.97
2022-11-25T18:38:15.068Z,45.50
2022-11-25T18:40:48.928Z,44.63
2022-11-25T18:43:25.675Z,40.25
2022-11-25T18:45:57.220Z,35.58
2022-11-25T18:48:27.345Z,41.50
2022-11-25T18:50:57.497Z,41.50
2022-11-25T18:53:29.676Z,38.38
2022-11-25T18:55:57.948Z,40.03
2022-11-25T18:58:28.308Z,38.20
2022-11-25T19:01:02.789Z,40.88
2022-11-25T19:03:31.521Z,37.40
2022-11-25T19:06:03.160Z,39.60
2022-11-25T19:08:32.919Z,39.53
2022-11-25T19:11:03.015Z,37.28
2022-11-25T19:13:34.270Z,32.60
2022-11-25T19:16:08.442Z,38.08
2022-11-25T19:18:36.874Z,33.78
2022-11-25T19:21:07.023Z,32.83
2022-11-25T19:23:36.515Z,31.60
2022-11-25T19:26:09.699Z,33.85
2022-11-25T19:28:38.069Z,36.50
2022-11-25T19:31:08.339Z,37.95
2022-11-25T19:33:39.452Z,36.10
2022-11-25T19:36:08.756Z,33.17
2022-11-25T19:38:42.543Z,31.55
2022-11-25T19:41:10.955Z,30.88
2022-11-25T19:43:39.110Z,34.38
2022-11-25T19:46:29.429Z,30.13
2022-11-25T19:49:01.005Z,33.35
2022-11-25T19:51:32.616Z,33.85
2022-11-25T19:54:02.230Z,33.17
2022-11-25T19:56:31.471Z,39.83
2022-11-25T19:59:00.408Z,34.13
2022-11-25T20:01:34.027Z,29.10
2022-11-25T20:04:03.491Z,29.75
2022-11-25T20:06:33.779Z,24.45
2022-11-25T20:09:07.973Z,34.28
2022-11-25T20:11:36.843Z,25.35
2022-11-25T20:14:05.180Z,29.65
2022-11-25T20:16:37.786Z,31.17
2022-11-25T20:19:07.675Z,33.85
2022-11-25T20:21:39.715Z,31.90
2022-11-25T20:24:15.077Z,25.90
2022-11-25T20:26:46.019Z,30.33
2022-11-25T20:29:17.596Z,26.83
2022-11-25T20:31:47.026Z,28.05
2022-11-25T20:34:15.457Z,27.20
2022-11-25T20:36:45.392Z,25.08
2022-11-25T20:39:20.298Z,24.50
2022-11-25T20:41:51.387Z,33.50
2022-11-25T20:44:22.448Z,32.88
2022-11-25T20:46:50.957Z,31.95
2022-11-25T20:49:27.586Z,34.30
2022-11-25T20:51:56.161Z,29.27
2022-11-25T20:54:28.240Z,30.13
2022-11-25T20:56:57.271Z,28.83
2022-11-25T20:59:26.028Z,26.17
2022-11-25T21:01:54.803Z,27.95
2022-11-25T21:04:25.147Z,26.73
2022-11-25T21:06:53.374Z,28.58
2022-11-25T21:09:25.574Z,29.88
2022-11-25T21:11:55.624Z,29.85
2022-11-25T21:14:25.318Z,25.88
2022-11-25T21:16:54.075Z,31.90
2022-11-25T21:19:24.616Z,28.13
2022-11-25T21:21:57.568Z,27.17
2022-11-25T21:24:31.667Z,35.35
2022-11-25T21:27:09.919Z,28.92
2022-11-25T21:29:44.615Z,31.20
2022-11-25T21:32:21.551Z,32.63
2022-11-25T21:34:49.835Z,31.50
2022-11-25T21:37:20.113Z,31.10
2022-11-25T21:39:50.719Z,26.45
2022-11-25T21:42:22.407Z,31.17
2022-11-25T21:44:52.056Z,32.83
2022-11-25T21:47:23.157Z,30.25
2022-11-25T21:49:51.869Z,26.38
2022-11-25T21:52:20.875Z,26.80
2022-11-25T21:54:49.503Z,25.38
2022-11-25T21:57:18.712Z,27.15
2022-11-25T21:59:49.919Z,27.92
2022-11-25T22:02:20.705Z,26.58
2022-11-25T22:04:50.473Z,26.63
2022-11-25T22:07:24.104Z,27.17
2022-11-25T22:09:56.195Z,33.78
2022-11-25T22:12:29.363Z,35.47
2022-11-25T22:15:00.512Z,24.98
2022-11-25T22:17:33.964Z,23.80
2022-11-25T22:20:02.329Z,23.75
2022-11-25T22:22:30.978Z,21.77
2022-11-25T22:24:59.342Z,31.10
2022-11-25T22:27:36.179Z,24.88
2022-11-25T22:30:07.580Z,31.48
2022-11-25T22:32:35.902Z,26.65
2022-11-25T22:35:13.919Z,29.63
2022-11-25T22:37:51.999Z,24.40
2022-11-25T22:40:24.260Z,21.23
2022-11-25T22:42:54.192Z,27.35
2022-11-25T22:45:30.752Z,23.00
2022-11-25T22:48:01.837Z,28.40
2022-11-25T22:50:34.030Z,23.35
2022-11-25T22:53:03.072Z,31.38
2022-11-25T22:55:33.375Z,30.80
2022-11-25T22:58:04.556Z,37.67
2022-11-25T23:00:39.621Z,31.75
2022-11-25T23:03:15.515Z,30.02
2022-11-25T23:05:43.911Z,26.65
2022-11-25T23:08:14.620Z,25.83
2022-11-25T23:10:44.322Z,26.77
2022-11-25T23:13:14.508Z,30.52
2022-11-25T23:15:49.337Z,22.90
2022-11-25T23:18:22.257Z,32.25
2022-11-25T23:20:50.790Z,27.05
2022-11-25T23:23:23.258Z,26.55
2022-11-25T23:25:54.803Z,29.17
2022-11-25T23:28:26.390Z,31.55
2022-11-25T23:30:58.009Z,27.10
2022-11-25T23:33:31.190Z,24.75
2022-11-25T23:36:06.176Z,23.67
2022-11-25T23:38:43.176Z,26.80
2022-11-25T23:41:16.508Z,25.75
2022-11-25T23:43:46.349Z,23.25
2022-11-25T23:46:16.707Z,26.58
2022-11-25T23:48:50.838Z,24.63
2022-11-25T23:51:19.596Z,25.90
2022-11-25T23:53:48.170Z,26.10
2022-11-25T23:56:17.256Z,20.08
2022-11-25T23:58:46.004Z,28.45
